Ganntown, Illinois
Current Conditions -  °F | °C
As of 5:55 PM on Friday 19 Dec 2014 (Local Time) from KM30 Reporting Station
Clear Clear  
Wind Chill: 34°   Ceiling: Unl
Heat Index: 37°   Visibility: 7mi
Dew Point: 31°   Wind: 5mph
Humidity: 78%   Direction: 40°NE
Pressure: 30.24"   Gusts: NA
Location:  37.3798°N, 88.7652°W
Report Text: KM30 192355Z AUTO 04004KT 7SM CLR 03/00 A3024 RMK AO2 T00301005 10050 20022
Loading
Personal Weather Stations






























Interactive Weather Map New forecast layout! Learn more

10-Day Weather Forecast

Advertisements
Track Severe Weather on mobile